sensor_id;sensor_type;location;lat;lon;timestamp;temperature;humidity
76537;DHT22;65381;51.254;15.592;2023-07-13T00:01:15;20.50;48.20
76537;DHT22;65381;51.254;15.592;2023-07-13T00:03:43;20.50;48.40
76537;DHT22;65381;51.254;15.592;2023-07-13T00:06:11;20.50;48.40
76537;DHT22;65381;51.254;15.592;2023-07-13T00:08:40;20.50;48.40
76537;DHT22;65381;51.254;15.592;2023-07-13T00:11:08;20.50;48.40
76537;DHT22;65381;51.254;15.592;2023-07-13T00:13:38;20.40;48.40
76537;DHT22;65381;51.254;15.592;2023-07-13T00:16:07;20.40;48.40
76537;DHT22;65381;51.254;15.592;2023-07-13T00:18:36;20.50;48.40
76537;DHT22;65381;51.254;15.592;2023-07-13T00:21:04;20.50;48.50
76537;DHT22;65381;51.254;15.592;2023-07-13T00:23:34;20.40;48.50
76537;DHT22;65381;51.254;15.592;2023-07-13T00:26:03;20.30;48.50
76537;DHT22;65381;51.254;15.592;2023-07-13T00:28:32;20.30;48.60
76537;DHT22;65381;51.254;15.592;2023-07-13T00:31:02;20.20;48.60
76537;DHT22;65381;51.254;15.592;2023-07-13T00:33:33;20.10;48.80
76537;DHT22;65381;51.254;15.592;2023-07-13T00:36:01;20.00;48.90
76537;DHT22;65381;51.254;15.592;2023-07-13T00:38:30;19.90;49.00
76537;DHT22;65381;51.254;15.592;2023-07-13T00:40:58;19.80;49.20
76537;DHT22;65381;51.254;15.592;2023-07-13T00:43:27;19.80;49.30
76537;DHT22;65381;51.254;15.592;2023-07-13T00:48:27;19.70;49.40
76537;DHT22;65381;51.254;15.592;2023-07-13T00:50:59;19.70;49.40
76537;DHT22;65381;51.254;15.592;2023-07-13T00:53:29;19.70;49.50
76537;DHT22;65381;51.254;15.592;2023-07-13T00:55:58;19.80;49.50
76537;DHT22;65381;51.254;15.592;2023-07-13T00:58:27;19.80;49.50
76537;DHT22;65381;51.254;15.592;2023-07-13T01:00:57;19.90;49.50
76537;DHT22;65381;51.254;15.592;2023-07-13T01:03:25;19.90;49.50
76537;DHT22;65381;51.254;15.592;2023-07-13T01:05:54;19.80;49.50
76537;DHT22;65381;51.254;15.592;2023-07-13T01:08:22;19.70;49.60
76537;DHT22;65381;51.254;15.592;2023-07-13T01:10:57;19.70;49.70
76537;DHT22;65381;51.254;15.592;2023-07-13T01:13:26;19.70;49.80
76537;DHT22;65381;51.254;15.592;2023-07-13T01:15:56;19.70;49.90
76537;DHT22;65381;51.254;15.592;2023-07-13T01:18:27;19.70;50.00
76537;DHT22;65381;51.254;15.592;2023-07-13T01:21:01;19.70;50.00
76537;DHT22;65381;51.254;15.592;2023-07-13T01:23:30;19.70;50.00
76537;DHT22;65381;51.254;15.592;2023-07-13T01:25:59;19.80;50.00
76537;DHT22;65381;51.254;15.592;2023-07-13T01:28:28;19.80;50.00
76537;DHT22;65381;51.254;15.592;2023-07-13T01:30:58;19.90;50.00
76537;DHT22;65381;51.254;15.592;2023-07-13T01:33:26;19.90;50.00
76537;DHT22;65381;51.254;15.592;2023-07-13T01:35:54;19.90;50.00
76537;DHT22;65381;51.254;15.592;2023-07-13T01:38:25;19.90;50.00
76537;DHT22;65381;51.254;15.592;2023-07-13T01:40:54;19.90;50.00
76537;DHT22;65381;51.254;15.592;2023-07-13T01:43:24;19.90;50.10
76537;DHT22;65381;51.254;15.592;2023-07-13T01:45:52;19.80;50.20
76537;DHT22;65381;51.254;15.592;2023-07-13T01:48:20;19.70;50.30
76537;DHT22;65381;51.254;15.592;2023-07-13T01:50:48;19.70;50.30
76537;DHT22;65381;51.254;15.592;2023-07-13T01:53:17;19.70;50.40
76537;DHT22;65381;51.254;15.592;2023-07-13T01:55:45;19.70;50.50
76537;DHT22;65381;51.254;15.592;2023-07-13T01:58:12;19.70;50.50
76537;DHT22;65381;51.254;15.592;2023-07-13T02:00:40;19.60;50.70
76537;DHT22;65381;51.254;15.592;2023-07-13T02:03:08;19.50;50.80
76537;DHT22;65381;51.254;15.592;2023-07-13T02:05:36;19.50;50.90
76537;DHT22;65381;51.254;15.592;2023-07-13T02:08:04;19.50;51.10
76537;DHT22;65381;51.254;15.592;2023-07-13T02:10:32;19.50;51.20
76537;DHT22;65381;51.254;15.592;2023-07-13T02:13:00;19.50;51.30
76537;DHT22;65381;51.254;15.592;2023-07-13T02:15:28;19.50;51.40
76537;DHT22;65381;51.254;15.592;2023-07-13T02:17:55;19.50;51.50
76537;DHT22;65381;51.254;15.592;2023-07-13T02:20:25;19.50;51.60
76537;DHT22;65381;51.254;15.592;2023-07-13T02:22:53;19.60;51.60
76537;DHT22;65381;51.254;15.592;2023-07-13T02:25:22;19.60;51.70
76537;DHT22;65381;51.254;15.592;2023-07-13T02:27:49;19.60;51.80
76537;DHT22;65381;51.254;15.592;2023-07-13T02:30:17;19.60;51.90
76537;DHT22;65381;51.254;15.592;2023-07-13T02:32:45;19.50;51.90
76537;DHT22;65381;51.254;15.592;2023-07-13T02:35:13;19.50;52.10
76537;DHT22;65381;51.254;15.592;2023-07-13T02:37:41;19.50;52.20
76537;DHT22;65381;51.254;15.592;2023-07-13T02:40:09;19.40;52.60
76537;DHT22;65381;51.254;15.592;2023-07-13T02:42:37;19.30;53.60
76537;DHT22;65381;51.254;15.592;2023-07-13T02:45:07;19.10;54.80
76537;DHT22;65381;51.254;15.592;2023-07-13T02:47:36;18.80;56.20
76537;DHT22;65381;51.254;15.592;2023-07-13T02:50:05;18.70;57.30
76537;DHT22;65381;51.254;15.592;2023-07-13T02:52:33;18.60;57.30
76537;DHT22;65381;51.254;15.592;2023-07-13T02:55:01;18.10;57.40
76537;DHT22;65381;51.254;15.592;2023-07-13T02:57:29;17.60;57.90
76537;DHT22;65381;51.254;15.592;2023-07-13T02:59:58;17.20;58.20
76537;DHT22;65381;51.254;15.592;2023-07-13T03:02:26;17.00;58.40
76537;DHT22;65381;51.254;15.592;2023-07-13T03:04:56;16.90;58.60
76537;DHT22;65381;51.254;15.592;2023-07-13T03:07:24;16.80;58.70
76537;DHT22;65381;51.254;15.592;2023-07-13T03:09:56;16.70;58.80
76537;DHT22;65381;51.254;15.592;2023-07-13T03:12:31;16.60;58.90
76537;DHT22;65381;51.254;15.592;2023-07-13T03:15:01;16.50;58.90
76537;DHT22;65381;51.254;15.592;2023-07-13T03:17:29;16.50;59.00
76537;DHT22;65381;51.254;15.592;2023-07-13T03:19:57;16.40;59.00
76537;DHT22;65381;51.254;15.592;2023-07-13T03:22:25;16.40;59.10
76537;DHT22;65381;51.254;15.592;2023-07-13T03:24:55;16.40;59.20
76537;DHT22;65381;51.254;15.592;2023-07-13T03:27:23;16.40;59.20
76537;DHT22;65381;51.254;15.592;2023-07-13T03:29:51;16.40;59.20
76537;DHT22;65381;51.254;15.592;2023-07-13T03:32:19;16.40;59.30
76537;DHT22;65381;51.254;15.592;2023-07-13T03:34:50;16.40;59.30
76537;DHT22;65381;51.254;15.592;2023-07-13T03:37:19;16.40;59.40
76537;DHT22;65381;51.254;15.592;2023-07-13T03:39:47;16.40;59.40
76537;DHT22;65381;51.254;15.592;2023-07-13T03:42:16;16.40;59.50
76537;DHT22;65381;51.254;15.592;2023-07-13T03:44:45;16.40;59.50
76537;DHT22;65381;51.254;15.592;2023-07-13T03:47:18;16.40;59.60
76537;DHT22;65381;51.254;15.592;2023-07-13T03:49:47;16.50;59.60
76537;DHT22;65381;51.254;15.592;2023-07-13T03:52:14;16.50;59.60
76537;DHT22;65381;51.254;15.592;2023-07-13T03:54:42;16.40;59.70
76537;DHT22;65381;51.254;15.592;2023-07-13T03:57:10;16.40;59.80
76537;DHT22;65381;51.254;15.592;2023-07-13T03:59:38;16.40;59.80
76537;DHT22;65381;51.254;15.592;2023-07-13T04:02:08;16.50;59.90
76537;DHT22;65381;51.254;15.592;2023-07-13T04:04:36;16.40;60.00
76537;DHT22;65381;51.254;15.592;2023-07-13T04:07:08;16.50;60.10
76537;DHT22;65381;51.254;15.592;2023-07-13T04:09:38;16.50;60.20
76537;DHT22;65381;51.254;15.592;2023-07-13T04:12:06;16.50;60.30
76537;DHT22;65381;51.254;15.592;2023-07-13T04:14:34;16.50;60.30
76537;DHT22;65381;51.254;15.592;2023-07-13T04:17:02;16.50;60.30
76537;DHT22;65381;51.254;15.592;2023-07-13T04:19:30;16.50;60.30
76537;DHT22;65381;51.254;15.592;2023-07-13T04:21:58;16.60;60.30
76537;DHT22;65381;51.254;15.592;2023-07-13T04:24:26;16.70;60.30
76537;DHT22;65381;51.254;15.592;2023-07-13T04:26:54;16.70;60.40
76537;DHT22;65381;51.254;15.592;2023-07-13T04:29:27;16.70;60.50
76537;DHT22;65381;51.254;15.592;2023-07-13T04:31:55;16.90;60.70
76537;DHT22;65381;51.254;15.592;2023-07-13T04:34:23;17.00;60.70
76537;DHT22;65381;51.254;15.592;2023-07-13T04:36:51;17.10;60.80
76537;DHT22;65381;51.254;15.592;2023-07-13T04:39:20;17.20;60.80
76537;DHT22;65381;51.254;15.592;2023-07-13T04:41:48;17.40;60.80
76537;DHT22;65381;51.254;15.592;2023-07-13T04:44:16;17.40;61.10
76537;DHT22;65381;51.254;15.592;2023-07-13T04:46:44;17.40;61.30
76537;DHT22;65381;51.254;15.592;2023-07-13T04:49:12;17.50;61.50
76537;DHT22;65381;51.254;15.592;2023-07-13T04:51:40;17.60;61.50
76537;DHT22;65381;51.254;15.592;2023-07-13T04:54:08;17.80;61.50
76537;DHT22;65381;51.254;15.592;2023-07-13T04:56:36;17.80;61.50
76537;DHT22;65381;51.254;15.592;2023-07-13T04:59:04;17.80;61.50
76537;DHT22;65381;51.254;15.592;2023-07-13T05:01:32;17.70;61.70
76537;DHT22;65381;51.254;15.592;2023-07-13T05:04:00;17.60;61.80
76537;DHT22;65381;51.254;15.592;2023-07-13T05:06:28;17.60;61.90
76537;DHT22;65381;51.254;15.592;2023-07-13T05:08:58;17.50;61.90
76537;DHT22;65381;51.254;15.592;2023-07-13T05:11:26;17.50;62.00
76537;DHT22;65381;51.254;15.592;2023-07-13T05:13:54;17.50;62.00
76537;DHT22;65381;51.254;15.592;2023-07-13T05:16:22;17.50;62.00
76537;DHT22;65381;51.254;15.592;2023-07-13T05:18:51;17.50;62.10
76537;DHT22;65381;51.254;15.592;2023-07-13T05:21:19;17.50;62.00
76537;DHT22;65381;51.254;15.592;2023-07-13T05:23:48;17.50;62.10
76537;DHT22;65381;51.254;15.592;2023-07-13T05:26:16;17.50;62.10
76537;DHT22;65381;51.254;15.592;2023-07-13T05:28:44;17.50;62.20
76537;DHT22;65381;51.254;15.592;2023-07-13T05:31:12;17.50;62.30
76537;DHT22;65381;51.254;15.592;2023-07-13T05:33:40;17.40;62.20
76537;DHT22;65381;51.254;15.592;2023-07-13T05:36:09;17.30;62.40
76537;DHT22;65381;51.254;15.592;2023-07-13T05:38:37;17.20;62.60
76537;DHT22;65381;51.254;15.592;2023-07-13T05:41:04;17.20;63.00
76537;DHT22;65381;51.254;15.592;2023-07-13T05:43:35;17.00;63.10
76537;DHT22;65381;51.254;15.592;2023-07-13T05:46:04;17.00;63.10
76537;DHT22;65381;51.254;15.592;2023-07-13T05:48:32;16.90;63.30
76537;DHT22;65381;51.254;15.592;2023-07-13T05:51:01;16.80;63.80
76537;DHT22;65381;51.254;15.592;2023-07-13T05:53:29;16.70;64.30
76537;DHT22;65381;51.254;15.592;2023-07-13T05:55:57;16.70;64.30
76537;DHT22;65381;51.254;15.592;2023-07-13T05:58:30;16.70;64.40
76537;DHT22;65381;51.254;15.592;2023-07-13T06:01:02;16.60;64.60
76537;DHT22;65381;51.254;15.592;2023-07-13T06:03:32;16.70;64.30
76537;DHT22;65381;51.254;15.592;2023-07-13T06:06:01;16.70;64.20
76537;DHT22;65381;51.254;15.592;2023-07-13T06:08:30;16.80;64.10
76537;DHT22;65381;51.254;15.592;2023-07-13T06:11:05;16.90;64.10
76537;DHT22;65381;51.254;15.592;2023-07-13T06:13:34;17.00;64.20
76537;DHT22;65381;51.254;15.592;2023-07-13T06:16:02;17.10;64.10
76537;DHT22;65381;51.254;15.592;2023-07-13T06:18:33;17.30;64.10
76537;DHT22;65381;51.254;15.592;2023-07-13T06:21:10;17.50;64.10
76537;DHT22;65381;51.254;15.592;2023-07-13T06:23:39;17.70;63.90
76537;DHT22;65381;51.254;15.592;2023-07-13T06:26:09;18.00;63.70
76537;DHT22;65381;51.254;15.592;2023-07-13T06:28:38;18.10;63.60
76537;DHT22;65381;51.254;15.592;2023-07-13T06:31:11;18.20;63.70
76537;DHT22;65381;51.254;15.592;2023-07-13T06:33:40;18.40;63.50
76537;DHT22;65381;51.254;15.592;2023-07-13T06:36:09;18.40;63.40
76537;DHT22;65381;51.254;15.592;2023-07-13T06:38:38;18.50;63.50
76537;DHT22;65381;51.254;15.592;2023-07-13T06:41:06;18.50;63.50
76537;DHT22;65381;51.254;15.592;2023-07-13T06:43:36;18.50;63.60
76537;DHT22;65381;51.254;15.592;2023-07-13T06:46:03;18.60;63.70
76537;DHT22;65381;51.254;15.592;2023-07-13T06:48:31;18.70;63.70
76537;DHT22;65381;51.254;15.592;2023-07-13T06:50:59;18.70;63.90
76537;DHT22;65381;51.254;15.592;2023-07-13T06:53:30;18.90;63.90
76537;DHT22;65381;51.254;15.592;2023-07-13T06:55:58;19.00;63.80
76537;DHT22;65381;51.254;15.592;2023-07-13T06:58:26;19.10;63.80
76537;DHT22;65381;51.254;15.592;2023-07-13T07:00:56;19.50;64.40
76537;DHT22;65381;51.254;15.592;2023-07-13T07:03:24;20.20;64.90
76537;DHT22;65381;51.254;15.592;2023-07-13T07:05:52;21.80;64.80
76537;DHT22;65381;51.254;15.592;2023-07-13T07:08:20;23.50;63.60
76537;DHT22;65381;51.254;15.592;2023-07-13T07:10:47;25.00;62.20
76537;DHT22;65381;51.254;15.592;2023-07-13T07:13:19;26.00;60.90
76537;DHT22;65381;51.254;15.592;2023-07-13T07:15:47;26.40;60.70
76537;DHT22;65381;51.254;15.592;2023-07-13T07:18:15;26.70;60.70
76537;DHT22;65381;51.254;15.592;2023-07-13T07:20:42;27.30;60.80
76537;DHT22;65381;51.254;15.592;2023-07-13T07:23:10;28.20;60.00
76537;DHT22;65381;51.254;15.592;2023-07-13T07:25:38;28.70;59.30
76537;DHT22;65381;51.254;15.592;2023-07-13T07:28:09;29.10;59.00
76537;DHT22;65381;51.254;15.592;2023-07-13T07:30:48;29.50;58.60
76537;DHT22;65381;51.254;15.592;2023-07-13T07:33:19;30.00;58.30
76537;DHT22;65381;51.254;15.592;2023-07-13T07:35:46;30.50;57.40
76537;DHT22;65381;51.254;15.592;2023-07-13T07:38:35;30.60;57.10
76537;DHT22;65381;51.254;15.592;2023-07-13T07:41:04;31.00;56.80
76537;DHT22;65381;51.254;15.592;2023-07-13T07:43:36;31.20;56.00
76537;DHT22;65381;51.254;15.592;2023-07-13T07:46:04;31.10;55.50
76537;DHT22;65381;51.254;15.592;2023-07-13T07:48:33;30.70;55.70
76537;DHT22;65381;51.254;15.592;2023-07-13T07:51:00;31.10;56.00
76537;DHT22;65381;51.254;15.592;2023-07-13T07:53:29;32.50;54.80
76537;DHT22;65381;51.254;15.592;2023-07-13T07:56:00;33.80;53.10
76537;DHT22;65381;51.254;15.592;2023-07-13T07:58:48;35.10;51.60
76537;DHT22;65381;51.254;15.592;2023-07-13T08:01:19;36.10;50.10
76537;DHT22;65381;51.254;15.592;2023-07-13T08:03:50;35.90;49.40
76537;DHT22;65381;51.254;15.592;2023-07-13T08:06:20;35.30;49.80
76537;DHT22;65381;51.254;15.592;2023-07-13T08:08:52;34.90;49.80
76537;DHT22;65381;51.254;15.592;2023-07-13T08:11:22;34.60;49.70
76537;DHT22;65381;51.254;15.592;2023-07-13T08:13:53;34.20;49.60
76537;DHT22;65381;51.254;15.592;2023-07-13T08:16:23;34.20;49.60
76537;DHT22;65381;51.254;15.592;2023-07-13T08:18:51;34.20;49.40
76537;DHT22;65381;51.254;15.592;2023-07-13T08:21:19;34.40;48.80
76537;DHT22;65381;51.254;15.592;2023-07-13T08:23:48;34.40;48.40
76537;DHT22;65381;51.254;15.592;2023-07-13T08:26:16;34.40;48.60
76537;DHT22;65381;51.254;15.592;2023-07-13T08:28:44;35.20;47.50
76537;DHT22;65381;51.254;15.592;2023-07-13T08:31:12;35.20;46.50
76537;DHT22;65381;51.254;15.592;2023-07-13T08:33:40;34.90;46.70
76537;DHT22;65381;51.254;15.592;2023-07-13T08:36:08;35.20;46.50
76537;DHT22;65381;51.254;15.592;2023-07-13T08:38:36;35.70;45.80
76537;DHT22;65381;51.254;15.592;2023-07-13T08:41:17;35.80;44.90
76537;DHT22;65381;51.254;15.592;2023-07-13T08:43:49;34.80;45.10
76537;DHT22;65381;51.254;15.592;2023-07-13T08:48:55;34.70;45.10
76537;DHT22;65381;51.254;15.592;2023-07-13T08:54:03;34.00;45.10
76537;DHT22;65381;51.254;15.592;2023-07-13T08:56:32;33.80;44.90
76537;DHT22;65381;51.254;15.592;2023-07-13T08:59:13;32.80;45.00
76537;DHT22;65381;51.254;15.592;2023-07-13T09:02:00;31.60;45.90
76537;DHT22;65381;51.254;15.592;2023-07-13T09:04:40;30.60;46.30
76537;DHT22;65381;51.254;15.592;2023-07-13T09:15:39;27.50;48.30
76537;DHT22;65381;51.254;15.592;2023-07-13T09:18:28;27.10;48.30
76537;DHT22;65381;51.254;15.592;2023-07-13T09:20:58;26.40;48.50
76537;DHT22;65381;51.254;15.592;2023-07-13T09:23:29;26.00;49.00
76537;DHT22;65381;51.254;15.592;2023-07-13T09:28:43;25.50;49.10
76537;DHT22;65381;51.254;15.592;2023-07-13T09:31:32;25.50;49.20
76537;DHT22;65381;51.254;15.592;2023-07-13T09:34:04;25.60;49.10
76537;DHT22;65381;51.254;15.592;2023-07-13T09:36:33;25.90;48.90
76537;DHT22;65381;51.254;15.592;2023-07-13T09:39:13;25.90;48.70
76537;DHT22;65381;51.254;15.592;2023-07-13T09:44:52;25.60;49.00
76537;DHT22;65381;51.254;15.592;2023-07-13T09:47:29;25.60;49.00
76537;DHT22;65381;51.254;15.592;2023-07-13T09:50:00;25.80;48.90
76537;DHT22;65381;51.254;15.592;2023-07-13T09:57:56;25.70;48.90
76537;DHT22;65381;51.254;15.592;2023-07-13T10:00:29;25.80;49.00
76537;DHT22;65381;51.254;15.592;2023-07-13T10:05:43;26.40;48.70
76537;DHT22;65381;51.254;15.592;2023-07-13T10:08:29;27.20;48.40
76537;DHT22;65381;51.254;15.592;2023-07-13T10:11:00;28.10;47.50
76537;DHT22;65381;51.254;15.592;2023-07-13T10:13:36;28.40;47.00
76537;DHT22;65381;51.254;15.592;2023-07-13T10:16:07;28.60;47.20
76537;DHT22;65381;51.254;15.592;2023-07-13T10:18:46;30.00;46.50
76537;DHT22;65381;51.254;15.592;2023-07-13T10:21:18;30.70;45.50
76537;DHT22;65381;51.254;15.592;2023-07-13T10:24:21;30.60;45.50
76537;DHT22;65381;51.254;15.592;2023-07-13T10:29:27;30.50;45.70
76537;DHT22;65381;51.254;15.592;2023-07-13T10:31:56;30.30;45.90
76537;DHT22;65381;51.254;15.592;2023-07-13T10:34:25;29.90;46.20
76537;DHT22;65381;51.254;15.592;2023-07-13T10:36:54;29.70;46.40
76537;DHT22;65381;51.254;15.592;2023-07-13T10:39:27;29.70;46.50
76537;DHT22;65381;51.254;15.592;2023-07-13T10:42:05;29.70;46.20
76537;DHT22;65381;51.254;15.592;2023-07-13T10:44:34;29.50;46.20
76537;DHT22;65381;51.254;15.592;2023-07-13T10:47:06;29.30;46.50
76537;DHT22;65381;51.254;15.592;2023-07-13T10:49:36;29.30;46.50
76537;DHT22;65381;51.254;15.592;2023-07-13T10:52:06;29.40;46.20
76537;DHT22;65381;51.254;15.592;2023-07-13T10:54:34;29.60;46.00
76537;DHT22;65381;51.254;15.592;2023-07-13T10:57:20;30.60;45.70
76537;DHT22;65381;51.254;15.592;2023-07-13T11:00:16;32.40;44.00
76537;DHT22;65381;51.254;15.592;2023-07-13T11:02:59;33.30;43.10
76537;DHT22;65381;51.254;15.592;2023-07-13T11:05:33;33.30;42.80
76537;DHT22;65381;51.254;15.592;2023-07-13T11:08:32;33.80;42.80
76537;DHT22;65381;51.254;15.592;2023-07-13T11:11:01;35.60;41.80
76537;DHT22;65381;51.254;15.592;2023-07-13T11:18:48;37.20;39.70
76537;DHT22;65381;51.254;15.592;2023-07-13T11:21:19;36.90;39.20
76537;DHT22;65381;51.254;15.592;2023-07-13T11:24:14;37.00;39.70
76537;DHT22;65381;51.254;15.592;2023-07-13T11:26:52;38.40;38.40
76537;DHT22;65381;51.254;15.592;2023-07-13T11:32:30;35.80;39.20
76537;DHT22;65381;51.254;15.592;2023-07-13T11:34:58;33.50;40.30
76537;DHT22;65381;51.254;15.592;2023-07-13T11:37:28;31.70;41.60
76537;DHT22;65381;51.254;15.592;2023-07-13T11:39:57;30.70;42.80
76537;DHT22;65381;51.254;15.592;2023-07-13T11:42:25;31.40;42.40
76537;DHT22;65381;51.254;15.592;2023-07-13T11:44:53;31.50;41.70
76537;DHT22;65381;51.254;15.592;2023-07-13T11:47:42;31.10;42.00
76537;DHT22;65381;51.254;15.592;2023-07-13T11:50:19;31.40;41.60
76537;DHT22;65381;51.254;15.592;2023-07-13T11:52:49;31.10;41.40
76537;DHT22;65381;51.254;15.592;2023-07-13T11:55:18;30.50;41.60
76537;DHT22;65381;51.254;15.592;2023-07-13T11:57:50;30.00;42.10
76537;DHT22;65381;51.254;15.592;2023-07-13T12:00:22;29.70;42.20
76537;DHT22;65381;51.254;15.592;2023-07-13T12:02:53;29.30;42.10
76537;DHT22;65381;51.254;15.592;2023-07-13T12:05:22;29.00;42.20
76537;DHT22;65381;51.254;15.592;2023-07-13T12:07:51;28.70;42.30
76537;DHT22;65381;51.254;15.592;2023-07-13T12:10:24;28.90;42.30
76537;DHT22;65381;51.254;15.592;2023-07-13T12:12:53;29.00;42.00
76537;DHT22;65381;51.254;15.592;2023-07-13T12:15:23;28.70;42.00
76537;DHT22;65381;51.254;15.592;2023-07-13T12:17:51;28.40;42.20
76537;DHT22;65381;51.254;15.592;2023-07-13T12:20:27;28.30;42.30
76537;DHT22;65381;51.254;15.592;2023-07-13T12:22:58;28.10;42.20
76537;DHT22;65381;51.254;15.592;2023-07-13T12:25:27;27.70;42.40
76537;DHT22;65381;51.254;15.592;2023-07-13T12:27:56;27.30;42.70
76537;DHT22;65381;51.254;15.592;2023-07-13T12:30:29;27.10;43.00
76537;DHT22;65381;51.254;15.592;2023-07-13T12:33:07;27.50;43.20
76537;DHT22;65381;51.254;15.592;2023-07-13T12:35:48;28.30;42.40
76537;DHT22;65381;51.254;15.592;2023-07-13T12:38:17;28.50;42.20
76537;DHT22;65381;51.254;15.592;2023-07-13T12:40:49;28.70;42.10
76537;DHT22;65381;51.254;15.592;2023-07-13T12:43:20;29.20;41.90
76537;DHT22;65381;51.254;15.592;2023-07-13T12:46:04;29.70;41.70
76537;DHT22;65381;51.254;15.592;2023-07-13T12:48:39;30.70;41.40
76537;DHT22;65381;51.254;15.592;2023-07-13T12:51:22;31.70;40.60
76537;DHT22;65381;51.254;15.592;2023-07-13T12:53:57;31.90;40.10
76537;DHT22;65381;51.254;15.592;2023-07-13T12:56:27;31.40;40.30
76537;DHT22;65381;51.254;15.592;2023-07-13T12:59:02;30.70;40.60
76537;DHT22;65381;51.254;15.592;2023-07-13T13:01:34;29.90;41.10
76537;DHT22;65381;51.254;15.592;2023-07-13T13:04:05;29.30;41.70
76537;DHT22;65381;51.254;15.592;2023-07-13T13:06:34;29.50;42.10
76537;DHT22;65381;51.254;15.592;2023-07-13T13:09:12;30.00;41.80
76537;DHT22;65381;51.254;15.592;2023-07-13T13:11:41;30.60;41.50
76537;DHT22;65381;51.254;15.592;2023-07-13T13:14:09;31.30;41.00
76537;DHT22;65381;51.254;15.592;2023-07-13T13:16:46;31.70;40.70
76537;DHT22;65381;51.254;15.592;2023-07-13T13:19:26;32.30;40.40
76537;DHT22;65381;51.254;15.592;2023-07-13T13:21:56;32.50;39.80
76537;DHT22;65381;51.254;15.592;2023-07-13T13:24:27;32.20;39.60
76537;DHT22;65381;51.254;15.592;2023-07-13T13:26:56;31.40;39.80
76537;DHT22;65381;51.254;15.592;2023-07-13T13:29:25;30.80;40.00
76537;DHT22;65381;51.254;15.592;2023-07-13T13:31:56;30.20;40.10
76537;DHT22;65381;51.254;15.592;2023-07-13T13:34:25;29.50;40.30
76537;DHT22;65381;51.254;15.592;2023-07-13T13:36:54;29.00;40.50
76537;DHT22;65381;51.254;15.592;2023-07-13T13:39:35;28.60;40.70
76537;DHT22;65381;51.254;15.592;2023-07-13T13:42:04;28.50;40.70
76537;DHT22;65381;51.254;15.592;2023-07-13T13:44:33;28.30;40.70
76537;DHT22;65381;51.254;15.592;2023-07-13T13:47:01;28.20;40.60
76537;DHT22;65381;51.254;15.592;2023-07-13T13:49:30;28.10;40.70
76537;DHT22;65381;51.254;15.592;2023-07-13T13:51:58;28.00;40.70
76537;DHT22;65381;51.254;15.592;2023-07-13T13:54:28;28.00;40.60
76537;DHT22;65381;51.254;15.592;2023-07-13T13:56:56;27.90;40.60
76537;DHT22;65381;51.254;15.592;2023-07-13T13:59:24;27.90;40.60
76537;DHT22;65381;51.254;15.592;2023-07-13T14:01:52;27.90;40.50
76537;DHT22;65381;51.254;15.592;2023-07-13T14:04:22;28.00;40.40
76537;DHT22;65381;51.254;15.592;2023-07-13T14:06:50;27.90;40.40
76537;DHT22;65381;51.254;15.592;2023-07-13T14:09:19;27.80;40.40
76537;DHT22;65381;51.254;15.592;2023-07-13T14:11:50;27.70;40.30
76537;DHT22;65381;51.254;15.592;2023-07-13T14:14:22;27.40;40.30
76537;DHT22;65381;51.254;15.592;2023-07-13T14:16:51;27.10;40.50
76537;DHT22;65381;51.254;15.592;2023-07-13T14:19:23;27.00;40.60
76537;DHT22;65381;51.254;15.592;2023-07-13T14:21:51;27.00;40.60
76537;DHT22;65381;51.254;15.592;2023-07-13T14:24:22;26.90;40.50
76537;DHT22;65381;51.254;15.592;2023-07-13T14:26:51;26.80;40.50
76537;DHT22;65381;51.254;15.592;2023-07-13T14:29:20;26.80;40.50
76537;DHT22;65381;51.254;15.592;2023-07-13T14:31:51;26.80;40.60
76537;DHT22;65381;51.254;15.592;2023-07-13T14:34:20;27.00;40.50
76537;DHT22;65381;51.254;15.592;2023-07-13T14:36:50;27.40;40.50
76537;DHT22;65381;51.254;15.592;2023-07-13T14:39:23;27.90;40.20
76537;DHT22;65381;51.254;15.592;2023-07-13T14:41:53;28.30;40.00
76537;DHT22;65381;51.254;15.592;2023-07-13T14:44:30;28.60;39.60
76537;DHT22;65381;51.254;15.592;2023-07-13T14:47:02;28.50;39.60
76537;DHT22;65381;51.254;15.592;2023-07-13T14:49:36;28.30;39.60
76537;DHT22;65381;51.254;15.592;2023-07-13T14:52:17;28.10;39.70
76537;DHT22;65381;51.254;15.592;2023-07-13T14:54:46;27.90;39.90
76537;DHT22;65381;51.254;15.592;2023-07-13T14:57:16;27.70;40.10
76537;DHT22;65381;51.254;15.592;2023-07-13T14:59:45;27.60;40.30
76537;DHT22;65381;51.254;15.592;2023-07-13T15:02:35;27.70;40.30
76537;DHT22;65381;51.254;15.592;2023-07-13T15:05:17;27.90;40.20
76537;DHT22;65381;51.254;15.592;2023-07-13T15:07:46;28.10;40.10
76537;DHT22;65381;51.254;15.592;2023-07-13T15:10:23;28.30;40.10
76537;DHT22;65381;51.254;15.592;2023-07-13T15:13:16;28.30;40.10
76537;DHT22;65381;51.254;15.592;2023-07-13T15:15:50;28.30;40.20
76537;DHT22;65381;51.254;15.592;2023-07-13T15:18:21;28.30;40.20
76537;DHT22;65381;51.254;15.592;2023-07-13T15:20:51;28.50;40.10
76537;DHT22;65381;51.254;15.592;2023-07-13T15:23:23;28.30;40.10
76537;DHT22;65381;51.254;15.592;2023-07-13T15:25:53;28.40;40.20
76537;DHT22;65381;51.254;15.592;2023-07-13T15:28:20;28.30;40.20
76537;DHT22;65381;51.254;15.592;2023-07-13T15:30:49;28.30;40.20
76537;DHT22;65381;51.254;15.592;2023-07-13T15:33:20;28.40;40.10
76537;DHT22;65381;51.254;15.592;2023-07-13T15:35:50;28.30;39.80
76537;DHT22;65381;51.254;15.592;2023-07-13T15:38:24;28.10;40.00
76537;DHT22;65381;51.254;15.592;2023-07-13T15:40:57;28.10;40.00
76537;DHT22;65381;51.254;15.592;2023-07-13T15:43:26;28.10;39.80
76537;DHT22;65381;51.254;15.592;2023-07-13T15:45:54;28.10;39.80
76537;DHT22;65381;51.254;15.592;2023-07-13T15:48:23;27.80;39.80
76537;DHT22;65381;51.254;15.592;2023-07-13T15:51:01;27.50;39.90
76537;DHT22;65381;51.254;15.592;2023-07-13T15:53:33;27.30;40.00
76537;DHT22;65381;51.254;15.592;2023-07-13T15:56:19;27.10;40.20
76537;DHT22;65381;51.254;15.592;2023-07-13T15:58:48;26.90;40.20
76537;DHT22;65381;51.254;15.592;2023-07-13T16:01:20;26.70;40.30
76537;DHT22;65381;51.254;15.592;2023-07-13T16:03:48;26.60;40.50
76537;DHT22;65381;51.254;15.592;2023-07-13T16:06:22;26.60;40.50
76537;DHT22;65381;51.254;15.592;2023-07-13T16:08:51;26.60;40.60
76537;DHT22;65381;51.254;15.592;2023-07-13T16:11:25;26.60;40.50
76537;DHT22;65381;51.254;15.592;2023-07-13T16:13:54;26.80;40.50
76537;DHT22;65381;51.254;15.592;2023-07-13T16:16:29;27.00;40.40
76537;DHT22;65381;51.254;15.592;2023-07-13T16:19:00;27.20;40.30